Time;durP1;ratioP1;P1;durP2;ratioP2;P2;SDS_P1;SDS_P2;PMS_P1;PMS_P2;Temp;Humidity;BMP_temperature;BMP_pressure;BME280_temperature;BME280_humidity;BME280_pressure;Samples;Min_cycle;Max_cycle;Signal;HPM_P1;HPM_P2
2023/01/17 00:02:06;;;;;;;16.50;10.20;;;;;;;1.14;100.00;100621.80;105045;1258;62383;-60
2023/01/17 00:10:08;;;;;;;18.80;10.00;;;;;;;1.15;100.00;100608.75;105165;1259;69246;-61
2023/01/17 00:12:35;;;;;;;18.70;10.60;;;;;;;1.15;100.00;100612.48;105195;1254;75130;-60
2023/01/17 00:15:03;;;;;;;18.30;10.50;;;;;;;1.15;100.00;100605.60;105143;1258;61746;-61
2023/01/17 00:17:30;;;;;;;18.10;9.50;;;;;;;1.16;100.00;100598.89;105494;1259;62798;-60
2023/01/17 01:35:40;;;;;;;16.00;8.80;;;;;;;-0.58;100.00;100562.70;105423;1254;62273;-61
2023/01/17 01:38:07;;;;;;;19.00;9.40;;;;;;;-0.60;100.00;100564.59;105593;1260;61638;-62
2023/01/17 01:40:41;;;;;;;14.40;9.50;;;;;;;-0.65;100.00;100564.02;105842;1257;77159;-63
2023/01/17 01:43:08;;;;;;;14.60;9.20;;;;;;;-0.68;100.00;100565.61;105184;1257;68548;-60
2023/01/17 01:45:35;;;;;;;14.50;9.50;;;;;;;-0.73;100.00;100568.14;105086;1260;75711;-61
2023/01/17 01:48:11;;;;;;;15.20;8.80;;;;;;;-0.78;100.00;100576.50;105578;1258;62162;-60
2023/01/17 01:50:39;;;;;;;15.50;8.30;;;;;;;-0.82;100.00;100582.10;105014;1261;62039;-60
2023/01/17 01:53:06;;;;;;;15.70;9.00;;;;;;;-0.87;100.00;100584.75;105184;1254;76255;-60
2023/01/17 01:55:39;;;;;;;15.80;8.40;;;;;;;-0.91;100.00;100580.42;105174;1260;69588;-59
2023/01/17 01:58:12;;;;;;;16.60;8.90;;;;;;;-0.92;100.00;100574.52;105570;1255;74138;-60
2023/01/17 02:00:39;;;;;;;17.40;9.50;;;;;;;-0.95;100.00;100570.48;105542;1254;63008;-60
2023/01/17 02:03:13;;;;;;;18.60;10.20;;;;;;;-0.99;100.00;100573.67;105878;1260;62523;-59
2023/01/17 02:05:41;;;;;;;18.10;9.60;;;;;;;-1.04;100.00;100571.95;105360;1254;76113;-59
2023/01/17 02:08:14;;;;;;;18.60;9.50;;;;;;;-1.09;100.00;100574.63;105434;1260;70115;-60
2023/01/17 02:10:42;;;;;;;17.90;9.60;;;;;;;-1.14;100.00;100564.27;105400;1260;74186;-60
2023/01/17 02:13:11;;;;;;;16.30;9.80;;;;;;;-1.19;100.00;100564.40;105409;1260;61664;-60
2023/01/17 02:15:56;;;;;;;17.60;9.20;;;;;;;-1.23;100.00;100567.00;105497;1257;61520;-62
2023/01/17 02:18:46;;;;;;;21.90;10.50;;;;;;;-1.29;100.00;100564.02;105295;1263;77092;-60
2023/01/17 02:21:16;;;;;;;18.40;10.20;;;;;;;-1.36;100.00;100563.42;104900;1261;68475;-61
2023/01/17 02:24:02;;;;;;;17.60;9.60;;;;;;;-1.42;100.00;100563.27;105012;1259;74535;-61
2023/01/17 02:26:41;;;;;;;18.00;10.00;;;;;;;-1.46;100.00;100562.02;105265;1260;61251;-60
2023/01/17 02:29:33;;;;;;;19.10;10.50;;;;;;;-1.50;100.00;100563.61;105011;1260;62843;-61
2023/01/17 02:32:29;;;;;;;20.10;11.00;;;;;;;-1.52;100.00;100561.02;105442;1254;76164;-60
2023/01/17 02:34:59;;;;;;;20.60;10.50;;;;;;;-1.54;100.00;100558.42;105163;1254;69797;-60
2023/01/17 02:37:55;;;;;;;20.10;10.80;;;;;;;-1.54;100.00;100554.88;105231;1255;75414;-61
2023/01/17 02:40:26;;;;;;;17.60;10.70;;;;;;;-1.54;100.00;100555.54;105365;1254;61983;-61
2023/01/17 02:42:59;;;;;;;20.60;10.80;;;;;;;-1.53;100.00;100552.71;105538;1260;62512;-62
2023/01/17 02:45:26;;;;;;;21.50;12.40;;;;;;;-1.56;100.00;100549.04;105531;1254;76032;-60
2023/01/17 02:47:54;;;;;;;18.90;10.60;;;;;;;-1.59;100.00;100549.89;105536;1259;68632;-59
2023/01/17 02:50:22;;;;;;;18.10;10.10;;;;;;;-1.61;100.00;100547.45;105443;1260;73854;-60
2023/01/17 02:53:12;;;;;;;21.00;11.10;;;;;;;-1.62;100.00;100545.20;105528;1260;61375;-62
2023/01/17 02:55:46;;;;;;;18.00;11.60;;;;;;;-1.65;100.00;100548.59;105257;1254;62538;-59
2023/01/17 02:58:16;;;;;;;22.40;10.90;;;;;;;-1.69;100.00;100545.27;105779;1260;76595;-61
2023/01/17 03:00:58;;;;;;;19.90;10.90;;;;;;;-1.71;100.00;100541.96;105330;1259;69398;-59
2023/01/17 03:03:32;;;;;;;20.00;11.50;;;;;;;-1.73;100.00;100541.79;105882;1254;74290;-62
2023/01/17 03:06:12;;;;;;;23.00;12.40;;;;;;;-1.76;100.00;100543.63;105542;1254;61442;-59
2023/01/17 03:08:41;;;;;;;19.50;11.70;;;;;;;-1.79;100.00;100542.96;105294;1261;62801;-62
2023/01/17 03:11:09;;;;;;;23.10;13.40;;;;;;;-1.81;100.00;100543.27;105562;1259;77130;-62
2023/01/17 03:13:36;;;;;;;17.30;10.50;;;;;;;-1.83;100.00;100542.07;105711;1259;69645;-61
2023/01/17 03:16:05;;;;;;;22.20;12.20;;;;;;;-1.86;100.00;100540.38;105649;1259;74096;-61
2023/01/17 03:26:35;;;;;;;20.90;11.60;;;;;;;-1.90;100.00;100538.94;101823;1295;600939;-61
2023/01/17 03:29:02;;;;;;;21.00;13.00;;;;;;;-1.90;100.00;100538.08;105007;1267;60351;-61
2023/01/17 03:31:30;;;;;;;23.00;13.10;;;;;;;-1.89;100.00;100538.89;104265;1270;61476;-60
2023/01/17 03:33:57;;;;;;;21.50;12.50;;;;;;;-1.89;100.00;100539.23;104472;1267;73711;-61
2023/01/17 03:36:24;;;;;;;17.90;10.90;;;;;;;-1.90;100.00;100536.70;104502;1267;70051;-60
2023/01/17 03:38:51;;;;;;;22.30;12.30;;;;;;;-1.91;100.00;100530.81;104406;1271;74119;-62
2023/01/17 03:41:18;;;;;;;19.30;11.80;;;;;;;-1.92;100.00;100533.79;104604;1268;183870;-62
2023/01/17 03:43:45;;;;;;;23.50;12.60;;;;;;;-1.93;100.00;100536.04;104327;1268;61652;-62
2023/01/17 03:46:21;;;;;;;22.40;12.60;;;;;;;-1.93;100.00;100535.70;104525;1269;74848;-62
2023/01/17 03:48:48;;;;;;;21.70;11.90;;;;;;;-1.92;100.00;100536.84;104564;1270;69301;-62
2023/01/17 03:51:16;;;;;;;22.00;11.70;;;;;;;-1.90;100.00;100537.03;105219;1262;75162;-61
2023/01/17 03:53:45;;;;;;;23.50;13.80;;;;;;;-1.92;100.00;100536.14;104768;1261;62628;-62
2023/01/17 03:56:13;;;;;;;20.90;12.40;;;;;;;-1.98;100.00;100526.97;105012;1259;61803;-60
2023/01/17 03:58:40;;;;;;;25.30;13.40;;;;;;;-2.04;100.00;100526.14;104927;1259;75422;-60
2023/01/17 04:01:08;;;;;;;25.10;14.60;;;;;;;-2.10;100.00;100525.87;105359;1259;69243;-61
2023/01/17 04:03:35;;;;;;;27.20;13.80;;;;;;;-2.16;100.00;100526.89;104842;1263;75049;-59
2023/01/17 04:06:02;;;;;;;23.30;13.60;;;;;;;-2.20;100.00;100529.05;104967;1261;61670;-59
2023/01/17 04:08:30;;;;;;;24.30;12.10;;;;;;;-2.25;100.00;100530.17;104935;1263;61639;-59
2023/01/17 04:10:57;;;;;;;25.40;14.20;;;;;;;-2.29;100.00;100535.89;105000;1260;74657;-59
2023/01/17 04:13:24;;;;;;;27.30;16.60;;;;;;;-2.33;100.00;100542.07;105199;1258;68508;-61
2023/01/17 04:15:52;;;;;;;27.50;14.90;;;;;;;-2.36;100.00;100544.81;104978;1259;75690;-59
2023/01/17 04:18:19;;;;;;;27.60;16.00;;;;;;;-2.37;100.00;100547.11;105069;1257;63720;-59
2023/01/17 04:21:01;;;;;;;29.40;16.60;;;;;;;-2.39;100.00;100552.33;104844;1259;63127;-59
2023/01/17 04:23:29;;;;;;;30.70;16.10;;;;;;;-2.40;100.00;100552.73;104825;1262;73259;-60
2023/01/17 04:25:56;;;;;;;30.90;17.40;;;;;;;-2.41;100.00;100560.63;105266;1258;68268;-59
2023/01/17 04:28:23;;;;;;;31.60;17.70;;;;;;;-2.40;100.00;100553.77;104946;1257;75081;-59
2023/01/17 04:30:50;;;;;;;33.40;16.80;;;;;;;-2.38;100.00;100555.67;104768;1262;63553;-60
2023/01/17 04:33:17;;;;;;;35.20;16.10;;;;;;;-2.32;100.00;100553.95;105264;1258;63301;-61
2023/01/17 04:35:44;;;;;;;31.70;16.50;;;;;;;-2.23;100.00;100557.29;104890;1257;75911;-60
2023/01/17 04:38:11;;;;;;;25.60;14.90;;;;;;;-2.14;100.00;100560.34;104926;1259;69667;-59
2023/01/17 04:40:38;;;;;;;27.80;16.00;;;;;;;-2.08;100.00;100557.58;104908;1259;74093;-60
2023/01/17 04:43:05;;;;;;;29.20;17.20;;;;;;;-2.05;100.00;100562.13;104755;1260;60867;-59
2023/01/17 04:45:32;;;;;;;33.70;16.70;;;;;;;-2.02;100.00;100565.69;104977;1257;63094;-60
2023/01/17 04:48:04;;;;;;;33.70;18.00;;;;;;;-1.97;100.00;100573.90;104745;1262;75746;-60
2023/01/17 04:50:31;;;;;;;32.30;17.30;;;;;;;-1.90;100.00;100572.48;105056;1260;69639;-60
2023/01/17 04:52:59;;;;;;;35.50;18.90;;;;;;;-1.86;100.00;100575.95;105139;1258;75351;-61
2023/01/17 04:55:26;;;;;;;42.30;20.30;;;;;;;-1.81;100.00;100580.91;104968;1257;62726;-62
2023/01/17 04:57:53;;;;;;;37.40;20.50;;;;;;;-1.75;100.00;100585.84;104628;1262;61368;-60
2023/01/17 05:00:21;;;;;;;42.80;21.30;;;;;;;-1.72;100.00;100584.23;105006;1257;75235;-60
2023/01/17 05:02:50;;;;;;;41.20;20.20;;;;;;;-1.69;100.00;100577.98;104972;1260;69617;-60
2023/01/17 05:05:18;;;;;;;45.60;21.00;;;;;;;-1.67;100.00;100580.73;105031;1261;75204;-62
2023/01/17 05:07:54;;;;;;;35.30;20.20;;;;;;;-1.65;100.00;100583.40;104716;1260;64129;-62
2023/01/17 05:10:22;;;;;;;43.80;23.60;;;;;;;-1.65;100.00;100584.05;104844;1260;61856;-61
2023/01/17 05:12:56;;;;;;;44.80;23.70;;;;;;;-1.66;100.00;100581.68;104982;1259;74665;-61
2023/01/17 05:15:23;;;;;;;44.80;24.60;;;;;;;-1.65;100.00;100582.33;105294;1257;68894;-59
2023/01/17 05:17:51;;;;;;;42.60;21.80;;;;;;;-1.65;100.00;100573.84;104946;1257;74360;-59
2023/01/17 05:20:19;;;;;;;42.40;22.70;;;;;;;-1.66;100.00;100567.21;105048;1258;63403;-59
2023/01/17 05:22:56;;;;;;;45.40;24.40;;;;;;;-1.66;100.00;100565.85;105050;1259;61588;-60
2023/01/17 05:25:24;;;;;;;39.70;22.80;;;;;;;-1.66;100.00;100571.16;104959;1260;75588;-60
2023/01/17 05:27:51;;;;;;;45.00;22.70;;;;;;;-1.65;100.00;100573.96;104975;1260;68220;-60
2023/01/17 05:30:19;;;;;;;36.60;21.70;;;;;;;-1.63;100.00;100571.44;104731;1261;75350;-59
2023/01/17 05:32:51;;;;;;;56.60;26.20;;;;;;;-1.58;100.00;100575.60;105032;1258;61235;-62
2023/01/17 05:35:21;;;;;;;;;;;;;;;-1.57;100.00;100583.69;104964;1258;63081;-60
2023/01/17 05:37:49;;;;;;;38.80;21.40;;;;;;;-1.55;100.00;100585.60;104958;1257;74180;-59
2023/01/17 05:40:21;;;;;;;40.70;23.20;;;;;;;-1.53;100.00;100584.27;105062;1257;69590;-62
2023/01/17 05:42:49;;;;;;;42.10;22.40;;;;;;;-1.50;100.00;100580.19;105201;1257;75080;-63
2023/01/17 05:45:18;;;;;;;42.10;23.00;;;;;;;-1.47;100.00;100590.17;104984;1258;62446;-60
2023/01/17 05:47:46;;;;;;;36.70;20.10;;;;;;;-1.42;100.00;100590.74;105006;1257;62815;-60
2023/01/17 05:50:16;;;;;;;40.40;21.50;;;;;;;-1.38;100.00;100587.05;104992;1257;75177;-60
2023/01/17 05:52:54;;;;;;;37.90;20.30;;;;;;;-1.34;100.00;100589.04;104938;1262;69283;-60
2023/01/17 05:55:21;;;;;;;39.50;21.80;;;;;;;-1.29;100.00;100589.56;104970;1260;74925;-61
2023/01/17 05:57:49;;;;;;;37.60;20.40;;;;;;;-1.27;100.00;100593.14;105243;1259;62476;-61
2023/01/17 06:00:16;;;;;;;35.60;19.80;;;;;;;-1.24;100.00;100587.18;104992;1257;62526;-60
2023/01/17 06:02:44;;;;;;;40.20;22.10;;;;;;;-1.21;100.00;100585.15;104975;1259;75287;-63
2023/01/17 06:05:12;;;;;;;36.60;20.40;;;;;;;-1.18;100.00;100581.02;104764;1263;68674;-60
2023/01/17 06:07:42;;;;;;;35.20;18.30;;;;;;;-1.14;100.00;100582.30;104988;1260;75251;-60
2023/01/17 06:10:10;;;;;;;30.40;16.60;;;;;;;-1.10;100.00;100580.69;105026;1258;62626;-60
2023/01/17 06:12:37;;;;;;;26.70;15.10;;;;;;;-1.06;100.00;100575.64;105406;1253;62519;-60
2023/01/17 06:15:05;;;;;;;28.50;17.00;;;;;;;-1.01;100.00;100578.36;105405;1257;75564;-63
2023/01/17 06:17:32;;;;;;;31.70;18.20;;;;;;;-0.97;100.00;100574.16;105393;1256;68664;-60
2023/01/17 06:19:59;;;;;;;36.50;18.70;;;;;;;-0.91;100.00;100574.11;105317;1253;75252;-60
2023/01/17 06:22:26;;;;;;;33.10;19.60;;;;;;;-0.85;100.00;100567.44;105375;1257;61383;-61
2023/01/17 06:24:54;;;;;;;36.40;21.20;;;;;;;-0.82;100.00;100568.89;105937;1253;62928;-62
2023/01/17 06:27:21;;;;;;;39.00;21.90;;;;;;;-0.78;100.00;100568.10;105124;1253;76331;-61
2023/01/17 06:29:48;;;;;;;38.50;22.00;;;;;;;-0.74;100.00;100570.91;105281;1256;67628;-60
2023/01/17 06:32:15;;;;;;;40.30;21.60;;;;;;;-0.69;100.00;100575.41;105288;1253;75190;-60
2023/01/17 06:34:42;;;;;;;33.50;18.60;;;;;;;-0.64;100.00;100576.23;105253;1256;61669;-60
2023/01/17 06:37:09;;;;;;;30.40;17.00;;;;;;;-0.63;100.00;100575.90;105441;1254;62544;-63
2023/01/17 06:39:36;;;;;;;28.80;15.80;;;;;;;-0.62;100.00;100583.60;104920;1258;74342;-60
2023/01/17 06:42:03;;;;;;;24.80;15.10;;;;;;;-0.59;100.00;100579.36;105248;1258;68248;-60
2023/01/17 06:44:31;;;;;;;30.90;16.40;;;;;;;-0.56;100.00;100584.10;105148;1258;75266;-60
2023/01/17 06:46:58;;;;;;;28.00;16.70;;;;;;;-0.55;100.00;100572.20;105718;1254;62267;-60
2023/01/17 06:49:25;;;;;;;24.80;15.50;;;;;;;-0.52;100.00;100570.98;105139;1253;63220;-63
2023/01/17 06:51:52;;;;;;;23.40;13.90;;;;;;;-0.48;100.00;100571.27;105116;1254;74797;-60
2023/01/17 06:54:19;;;;;;;24.60;15.10;;;;;;;-0.44;100.00;100572.70;105334;1253;69536;-61
2023/01/17 06:56:46;;;;;;;22.70;14.10;;;;;;;-0.41;100.00;100572.96;105206;1254;75209;-60
2023/01/17 06:59:13;;;;;;;23.20;14.00;;;;;;;-0.38;100.00;100575.16;105738;1257;63584;-62
2023/01/17 07:01:41;;;;;;;24.10;14.40;;;;;;;-0.35;100.00;100578.20;105315;1254;61328;-62
2023/01/17 07:04:08;;;;;;;26.00;15.20;;;;;;;-0.32;100.00;100574.42;105244;1255;73616;-60
2023/01/17 07:06:36;;;;;;;25.70;15.10;;;;;;;-0.30;100.00;100563.68;105316;1257;68576;-60
2023/01/17 07:09:03;;;;;;;22.10;13.50;;;;;;;-0.26;100.00;100563.56;105186;1253;75328;-63
2023/01/17 07:11:30;;;;;;;23.00;14.20;;;;;;;-0.21;100.00;100568.40;105524;1254;62645;-59
2023/01/17 07:13:57;;;;;;;24.70;14.80;;;;;;;-0.21;100.00;100570.24;105586;1253;62661;-60
2023/01/17 07:16:25;;;;;;;23.70;14.50;;;;;;;-0.20;100.00;100568.12;105659;1253;75530;-60
2023/01/17 07:18:53;;;;;;;20.80;13.80;;;;;;;-0.19;100.00;100572.69;105107;1259;69571;-60
2023/01/17 07:21:21;;;;;;;25.60;14.70;;;;;;;-0.17;100.00;100568.10;105457;1255;73883;-60
2023/01/17 07:23:48;;;;;;;28.60;16.20;;;;;;;-0.15;100.00;100566.80;105219;1258;62268;-61
2023/01/17 07:26:16;;;;;;;25.50;14.20;;;;;;;-0.13;100.00;100574.34;105425;1254;62491;-60
2023/01/17 07:28:43;;;;;;;26.40;14.80;;;;;;;-0.10;100.00;100572.75;105420;1253;74419;-59
2023/01/17 07:31:10;;;;;;;26.90;16.50;;;;;;;-0.07;100.00;100574.55;105303;1254;69614;-59
2023/01/17 07:33:38;;;;;;;29.60;16.80;;;;;;;-0.03;100.00;100572.88;105352;1255;74122;-61
2023/01/17 07:36:06;;;;;;;27.50;15.60;;;;;;;0.02;100.00;100576.84;105080;1253;62545;-59
2023/01/17 07:38:33;;;;;;;31.30;17.80;;;;;;;0.05;100.00;100569.99;105337;1254;61847;-59
2023/01/17 07:41:00;;;;;;;28.10;18.80;;;;;;;0.07;100.00;100565.73;105427;1254;75154;-59
2023/01/17 07:43:28;;;;;;;33.30;19.20;;;;;;;0.13;100.00;100569.09;105596;1253;69747;-61
2023/01/17 07:45:55;;;;;;;28.90;17.00;;;;;;;0.19;100.00;100565.52;105139;1256;74008;-61
2023/01/17 07:48:22;;;;;;;33.40;18.50;;;;;;;0.29;100.00;100566.06;104928;1255;62602;-59
2023/01/17 07:50:54;;;;;;;31.30;19.00;;;;;;;0.35;100.00;100564.96;105259;1255;62294;-61
2023/01/17 07:53:23;;;;;;;31.70;20.40;;;;;;;0.38;100.00;100556.54;105975;1256;76350;-58
2023/01/17 07:55:50;;;;;;;24.80;15.80;;;;;;;0.41;100.00;100553.42;105362;1258;69472;-59
2023/01/17 07:58:18;;;;;;;30.70;19.20;;;;;;;0.44;100.00;100558.83;105449;1254;74974;-59
2023/01/17 08:00:45;;;;;;;35.50;22.70;;;;;;;0.49;100.00;100560.67;105470;1253;61856;-58
2023/01/17 08:03:14;;;;;;;31.80;19.20;;;;;;;0.58;100.00;100560.40;105165;1254;61570;-59
2023/01/17 08:05:42;;;;;;;37.20;21.70;;;;;;;0.65;100.00;100562.23;105192;1253;75011;-59
2023/01/17 08:08:09;;;;;;;38.00;21.60;;;;;;;0.72;100.00;100565.83;104993;1259;68517;-59
2023/01/17 08:10:36;;;;;;;32.20;19.30;;;;;;;0.76;100.00;100563.19;105182;1258;75014;-59
2023/01/17 08:13:03;;;;;;;30.20;18.40;;;;;;;0.82;100.00;100570.14;105071;1258;62303;-59
2023/01/17 08:15:31;;;;;;;29.40;18.60;;;;;;;0.88;100.00;100559.58;105294;1254;61785;-59
2023/01/17 08:17:58;;;;;;;33.70;19.40;;;;;;;0.93;100.00;100551.65;105292;1259;75158;-60
2023/01/17 08:20:26;;;;;;;31.60;17.70;;;;;;;0.97;100.00;100549.61;105260;1253;70287;-60
2023/01/17 08:22:54;;;;;;;28.70;16.70;;;;;;;1.01;100.00;100550.38;105263;1253;75296;-60
2023/01/17 08:25:23;;;;;;;35.70;19.70;;;;;;;1.06;100.00;100544.55;105832;1258;62066;-59
2023/01/17 08:27:50;;;;;;;32.10;17.90;;;;;;;1.10;100.00;100542.82;105543;1257;61436;-59
2023/01/17 08:30:17;;;;;;;32.60;18.00;;;;;;;1.16;100.00;100535.92;105277;1258;76297;-59
2023/01/17 08:32:45;;;;;;;29.90;17.60;;;;;;;1.22;100.00;100533.77;105700;1254;68545;-58
2023/01/17 08:35:12;;;;;;;35.10;19.80;;;;;;;1.26;100.00;100536.20;105486;1253;75310;-59
2023/01/17 08:37:40;;;;;;;32.90;19.70;;;;;;;1.34;100.00;100538.66;105927;1253;61320;-59
2023/01/17 08:40:09;;;;;;;28.40;17.90;;;;;;;1.41;100.00;100540.29;105635;1253;61859;-60
2023/01/17 08:42:39;;;;;;;25.90;17.30;;;;;;;1.53;100.00;100535.52;105678;1255;76342;-59
2023/01/17 08:45:07;;;;;;;30.50;17.50;;;;;;;1.63;100.00;100530.05;105747;1253;70090;-60
2023/01/17 08:47:34;;;;;;;32.80;19.80;;;;;;;1.70;100.00;100521.50;105684;1253;74973;-58
2023/01/17 08:50:05;;;;;;;32.80;17.30;;;;;;;1.81;100.00;100516.05;105153;1253;61943;-60
2023/01/17 08:52:33;;;;;;;28.90;16.60;;;;;;;1.95;100.00;100510.08;105378;1256;62878;-59
2023/01/17 08:55:00;;;;;;;32.10;17.50;;;;;;;2.08;100.00;100501.55;105280;1253;76316;-59
2023/01/17 08:57:27;;;;;;;24.50;16.50;;;;;;;2.18;100.00;100488.25;105695;1258;69451;-58
2023/01/17 08:59:54;;;;;;;29.00;16.30;;;;;;;2.25;100.00;100482.70;105675;1258;74907;-59
2023/01/17 09:02:23;;;;;;;28.90;16.00;;;;;;;2.41;100.00;100484.63;105113;1254;62525;-59
2023/01/17 09:04:50;;;;;;;30.50;18.10;;;;;;;2.59;100.00;100472.66;105179;1253;62072;-58
2023/01/17 09:07:18;;;;;;;29.60;16.20;;;;;;;2.73;100.00;100467.12;105198;1253;75883;-59
2023/01/17 09:09:45;;;;;;;26.80;16.40;;;;;;;2.85;100.00;100468.67;105275;1258;69283;-58
2023/01/17 09:12:13;;;;;;;27.40;16.20;;;;;;;2.98;100.00;100468.98;105397;1258;75511;-59
2023/01/17 09:14:40;;;;;;;24.60;14.80;;;;;;;3.13;100.00;100471.65;105440;1259;60738;-57
2023/01/17 09:17:07;;;;;;;25.50;15.00;;;;;;;3.33;100.00;100464.79;105616;1257;61738;-57
2023/01/17 09:19:34;;;;;;;25.00;16.00;;;;;;;3.55;100.00;100462.86;105380;1256;76221;-57
2023/01/17 09:22:03;;;;;;;25.10;15.50;;;;;;;3.70;100.00;100450.30;105652;1257;69730;-59
2023/01/17 09:24:32;;;;;;;25.90;16.40;;;;;;;3.85;100.00;100441.41;105686;1257;73947;-57
2023/01/17 09:26:59;;;;;;;30.10;16.30;;;;;;;4.03;100.00;100445.09;105284;1253;62069;-57
2023/01/17 09:29:26;;;;;;;27.50;17.10;;;;;;;4.06;100.00;100436.94;105376;1257;61532;-58
2023/01/17 09:31:53;;;;;;;25.60;15.90;;;;;;;4.01;100.00;100433.27;105495;1257;76307;-58
2023/01/17 09:34:23;;;;;;;23.80;15.50;;;;;;;3.96;100.00;100429.61;105419;1257;69568;-59
2023/01/17 09:36:50;;;;;;;29.50;16.90;;;;;;;3.93;100.00;100424.48;105563;1253;75112;-57
2023/01/17 09:39:17;;;;;;;27.70;15.10;;;;;;;3.91;100.00;100420.52;105283;1256;61130;-57
2023/01/17 09:41:44;;;;;;;26.30;16.40;;;;;;;3.83;100.00;100404.77;105322;1257;61634;-57
2023/01/17 09:44:23;;;;;;;22.90;14.90;;;;;;;3.75;100.00;100399.09;105418;1260;76401;-59
2023/01/17 09:46:52;;;;;;;24.00;14.50;;;;;;;3.73;100.00;100396.95;105601;1257;69313;-56
2023/01/17 09:49:28;;;;;;;25.80;15.30;;;;;;;3.75;100.00;100395.38;105304;1257;75190;-57
2023/01/17 09:51:55;;;;;;;25.70;15.60;;;;;;;3.82;100.00;100398.87;105818;1253;61970;-59
2023/01/17 09:54:24;;;;;;;31.30;16.10;;;;;;;3.85;100.00;100393.04;105000;1257;61697;-58
2023/01/17 09:57:12;;;;;;;25.60;15.40;;;;;;;3.93;100.00;100391.03;105103;1253;75180;-57
2023/01/17 10:00:15;;;;;;;24.90;15.30;;;;;;;4.00;100.00;100382.50;105293;1261;69519;-58
2023/01/17 10:02:45;;;;;;;26.20;14.50;;;;;;;3.99;100.00;100369.34;105313;1253;75023;-58
2023/01/17 10:05:26;;;;;;;28.50;14.80;;;;;;;3.96;100.00;100366.32;105579;1254;60765;-59
2023/01/17 10:08:03;;;;;;;32.50;15.60;;;;;;;3.86;100.00;100366.98;105154;1253;62558;-58
2023/01/17 10:10:33;;;;;;;26.80;15.80;;;;;;;3.76;100.00;100372.90;105286;1253;75907;-59
2023/01/17 10:13:16;;;;;;;24.50;15.10;;;;;;;3.69;100.00;100371.27;104949;1253;67800;-59
2023/01/17 10:16:24;;;;;;;26.50;15.10;;;;;;;3.68;100.00;100369.13;105140;1253;74265;-58
2023/01/17 10:18:55;;;;;;;29.30;15.20;;;;;;;3.81;100.00;100373.69;104300;1266;62160;-59
2023/01/17 10:21:37;;;;;;;27.20;14.90;;;;;;;3.85;100.00;100374.96;105056;1253;62995;-57
2023/01/17 10:24:20;;;;;;;30.00;15.20;;;;;;;3.86;100.00;100379.91;105316;1253;74968;-59
2023/01/17 10:26:52;;;;;;;23.70;15.20;;;;;;;3.87;100.00;100380.54;105314;1253;69224;-56
2023/01/17 10:29:20;;;;;;;26.40;15.60;;;;;;;3.89;100.00;100385.68;105166;1258;75232;-57
2023/01/17 10:31:53;;;;;;;31.10;15.30;;;;;;;3.91;100.00;100381.72;105716;1255;63506;-58
2023/01/17 10:34:22;;;;;;;28.00;15.50;;;;;;;3.98;100.00;100377.62;105100;1254;63340;-56
2023/01/17 10:36:52;;;;;;;26.80;15.30;;;;;;;4.10;100.00;100377.25;105340;1257;76234;-59
2023/01/17 10:39:21;;;;;;;28.10;15.90;;;;;;;4.24;100.00;100374.61;105177;1253;68643;-58
2023/01/17 10:41:59;;;;;;;26.10;16.40;;;;;;;4.36;100.00;100383.33;105705;1258;75250;-59
2023/01/17 10:44:42;;;;;;;32.80;17.80;;;;;;;4.43;100.00;100379.42;105381;1258;60945;-58
2023/01/17 10:47:09;;;;;;;27.10;15.60;;;;;;;4.53;100.00;100378.86;105367;1253;62532;-60
2023/01/17 10:49:39;;;;;;;25.70;14.70;;;;;;;4.58;100.00;100373.20;104985;1253;75152;-59
2023/01/17 10:52:42;;;;;;;25.10;15.70;;;;;;;4.55;100.00;100376.58;105269;1257;69338;-58
2023/01/17 10:55:28;;;;;;;27.40;16.30;;;;;;;4.46;100.00;100383.23;105550;1258;73529;-58
2023/01/17 10:57:56;;;;;;;23.00;14.80;;;;;;;4.43;100.00;100381.00;105164;1258;61213;-59
2023/01/17 11:00:31;;;;;;;26.40;16.10;;;;;;;4.40;100.00;100386.92;105328;1258;61984;-59
2023/01/17 11:02:58;;;;;;;27.00;15.50;;;;;;;4.40;100.00;100384.36;104907;1258;75149;-59
2023/01/17 11:05:27;;;;;;;25.10;13.90;;;;;;;4.41;100.00;100380.51;105248;1258;68209;-59
2023/01/17 11:08:02;;;;;;;29.10;17.60;;;;;;;4.39;100.00;100371.89;105293;1253;75751;-58
2023/01/17 11:10:43;;;;;;;36.50;21.90;;;;;;;4.37;100.00;100368.48;104834;1253;61830;-60
2023/01/17 11:13:30;;;;;;;32.70;17.40;;;;;;;4.31;100.00;100368.43;105056;1259;62606;-59
2023/01/17 11:16:08;;;;;;;26.20;17.00;;;;;;;4.26;100.00;100364.13;105639;1253;75353;-61
2023/01/17 11:18:39;;;;;;;25.60;15.00;;;;;;;4.22;100.00;100356.59;105290;1258;68576;-62
2023/01/17 11:21:11;;;;;;;26.90;15.20;;;;;;;4.18;100.00;100360.59;105123;1254;75020;-63
2023/01/17 11:23:41;;;;;;;30.10;17.00;;;;;;;4.13;100.00;100362.02;105714;1258;61037;-60
2023/01/17 11:26:11;;;;;;;37.60;16.90;;;;;;;4.07;100.00;100363.95;105508;1253;62136;-58
2023/01/17 11:28:39;;;;;;;33.20;16.90;;;;;;;4.07;100.00;100366.66;105263;1253;76172;-59
2023/01/17 11:31:15;;;;;;;27.60;17.10;;;;;;;4.07;100.00;100358.38;105934;1253;68734;-61
2023/01/17 11:33:44;;;;;;;26.50;16.60;;;;;;;4.05;100.00;100358.05;105429;1255;74547;-61
2023/01/17 11:36:26;;;;;;;25.40;13.40;;;;;;;4.02;100.00;100354.23;104876;1258;62374;-59
2023/01/17 11:38:54;;;;;;;22.60;13.60;;;;;;;4.02;100.00;100357.36;106212;1258;61718;-59
2023/01/17 11:41:22;;;;;;;24.00;13.90;;;;;;;4.03;100.00;100363.11;105791;1256;76365;-60
2023/01/17 11:43:53;;;;;;;26.80;15.50;;;;;;;4.02;100.00;100363.33;105292;1258;69476;-59
2023/01/17 11:46:21;;;;;;;;;;;;;;;4.03;100.00;100361.83;105773;1257;75281;-61
2023/01/17 11:48:53;;;;;;;26.20;15.00;;;;;;;4.04;100.00;100352.52;105716;1253;60725;-58
2023/01/17 11:51:30;;;;;;;25.50;15.00;;;;;;;4.02;100.00;100353.56;105716;1253;62747;-60
2023/01/17 11:54:26;;;;;;;28.50;15.30;;;;;;;4.00;100.00;100349.48;105483;1254;75241;-58
2023/01/17 11:56:57;;;;;;;25.90;15.30;;;;;;;3.98;100.00;100349.30;105775;1259;69538;-60
2023/01/17 11:59:32;;;;;;;26.20;16.30;;;;;;;3.94;100.00;100342.93;105615;1258;73994;-58
2023/01/17 12:02:30;;;;;;;25.30;16.80;;;;;;;3.89;100.00;100336.02;105675;1253;61013;-59
2023/01/17 12:05:27;;;;;;;25.60;15.50;;;;;;;3.82;100.00;100336.64;105649;1258;60808;-58
2023/01/17 12:07:58;;;;;;;29.00;16.90;;;;;;;3.76;100.00;100331.65;105602;1255;76252;-59
2023/01/17 12:10:30;;;;;;;29.50;17.00;;;;;;;3.71;100.00;100329.40;105253;1260;69524;-58
2023/01/17 12:16:44;;;;;;;24.50;16.00;;;;;;;3.56;100.00;100331.69;105567;1258;62344;-58
2023/01/17 12:19:37;;;;;;;29.90;16.50;;;;;;;3.50;100.00;100336.59;105002;1265;62939;-59
2023/01/17 12:22:04;;;;;;;26.90;15.80;;;;;;;3.43;100.00;100334.04;105144;1262;76451;-58
2023/01/17 12:25:03;;;;;;;30.40;16.80;;;;;;;3.40;100.00;100332.09;105449;1253;69703;-60
2023/01/17 12:27:45;;;;;;;27.70;15.60;;;;;;;3.33;100.00;100328.45;105726;1259;74132;-58
2023/01/17 12:30:37;;;;;;;26.80;15.70;;;;;;;3.27;100.00;100325.52;105590;1253;64299;-58
2023/01/17 12:33:23;;;;;;;;;;;;;;;3.22;100.00;100329.60;105771;1258;61461;-58
2023/01/17 12:35:52;;;;;;;29.90;16.50;;;;;;;3.17;100.00;100330.30;105695;1255;75176;-58
2023/01/17 12:38:27;;;;;;;32.60;16.80;;;;;;;3.14;100.00;100335.39;105767;1259;68468;-58
2023/01/17 12:41:01;;;;;;;27.80;14.90;;;;;;;3.11;100.00;100337.04;105498;1254;72871;-59
2023/01/17 12:43:35;;;;;;;29.50;17.70;;;;;;;3.09;100.00;100328.11;105581;1258;60675;-58
2023/01/17 12:46:39;;;;;;;31.30;19.00;;;;;;;3.06;100.00;100321.64;105524;1254;62487;-58
2023/01/17 12:49:57;;;;;;;32.70;18.90;;;;;;;3.03;100.00;100325.85;105670;1258;76204;-58
2023/01/17 12:53:01;;;;;;;32.50;17.10;;;;;;;2.99;100.00;100321.27;105020;1265;68453;-61